Time;durP1;ratioP1;P1;durP2;ratioP2;P2;SDS_P1;SDS_P2;PMS_P1;PMS_P2;Temp;Humidity;BMP_temperature;BMP_pressure;BME280_temperature;BME280_humidity;BME280_pressure;Samples;Min_cycle;Max_cycle;Signal;HPM_P1;HPM_P2
2023/11/21 00:00:32;;;;;;;;;;;;;;;8.36;100.00;101075.16;5021316;28;20455;-41
2023/11/21 00:02:57;;;;;;;;;;;;;;;8.39;100.00;101079.41;5013996;28;19917;-40
2023/11/21 00:05:23;;;;;;;;;;;;;;;8.43;100.00;101070.03;5013876;28;19966;-42
2023/11/21 00:07:48;;;;;;;;;;;;;;;8.45;100.00;101073.41;5013895;28;20004;-41
2023/11/21 00:10:14;;;;;;;;;;;;;;;8.43;100.00;101085.31;5013638;28;20280;-40
2023/11/21 00:12:41;;;;;;;;;;;;;;;8.46;100.00;101083.13;5013673;28;19917;-39
2023/11/21 00:15:12;;;;;;;;;;;;;;;8.50;100.00;101081.78;5013390;28;20241;-40
2023/11/21 00:17:38;;;;;;;;;;;;;;;8.55;100.00;101084.00;5013663;28;19914;-40
2023/11/21 00:20:06;;;;;;;;;;;;;;;8.54;100.00;101079.63;5013112;28;19925;-39
2023/11/21 00:22:32;;;;;;;;;;;;;;;8.57;100.00;101076.63;4995337;28;19921;-39
2023/11/21 00:24:57;;;;;;;;;;;;;;;8.59;100.00;101079.16;5013483;28;19917;-40
2023/11/21 00:27:22;;;;;;;;;;;;;;;8.59;100.00;101079.16;5017236;28;19913;-40
2023/11/21 00:29:48;;;;;;;;;;;;;;;8.60;100.00;101070.09;5020279;28;19988;-40
2023/11/21 00:32:13;;;;;;;;;;;;;;;8.61;100.00;101082.50;5019670;28;19964;-40
2023/11/21 00:34:38;;;;;;;;;;;;;;;8.62;100.00;101089.56;5020213;28;19917;-39
2023/11/21 00:37:04;;;;;;;;;;;;;;;8.62;100.00;101082.34;5020696;28;20565;-40
2023/11/21 00:39:29;;;;;;;;;;;;;;;8.61;100.00;101083.34;5020415;28;20284;-39
2023/11/21 00:41:54;;;;;;;;;;;;;;;8.65;100.00;101081.16;5019812;28;19920;-39
2023/11/21 00:44:19;;;;;;;;;;;;;;;8.64;100.00;101077.66;5019900;28;19921;-40
2023/11/21 00:46:45;;;;;;;;;;;;;;;8.57;100.00;101088.19;5019754;28;20002;-41
2023/11/21 00:49:10;;;;;;;;;;;;;;;8.53;100.00;101084.16;5019968;28;19944;-40
2023/11/21 00:51:35;;;;;;;;;;;;;;;8.52;100.00;101084.31;5027211;28;19964;-41
2023/11/21 00:54:01;;;;;;;;;;;;;;;8.49;100.00;101082.78;5039623;28;20363;-40
2023/11/21 00:56:26;;;;;;;;;;;;;;;8.47;100.00;101098.22;5039827;28;20004;-39
2023/11/21 00:58:52;;;;;;;;;;;;;;;8.50;100.00;101097.88;5039267;28;19913;-40
2023/11/21 01:01:18;;;;;;;;;;;;;;;8.50;100.00;101091.69;5039113;28;19917;-41
2023/11/21 01:03:43;;;;;;;;;;;;;;;8.49;100.00;101096.22;5039616;28;20237;-40
2023/11/21 01:06:08;;;;;;;;;;;;;;;8.48;100.00;101116.00;5035475;28;19963;-40
2023/11/21 01:08:34;;;;;;;;;;;;;;;8.48;100.00;101109.81;5024013;28;19962;-39
2023/11/21 01:10:59;;;;;;;;;;;;;;;8.47;100.00;101111.63;5022458;28;19919;-41
2023/11/21 01:13:29;;;;;;;;;;;;;;;8.49;100.00;101112.31;5020898;28;19909;-40
2023/11/21 01:15:54;;;;;;;;;;;;;;;8.50;100.00;101113.97;5037531;28;19917;-40
2023/11/21 01:18:19;;;;;;;;;;;;;;;8.52;100.00;101127.25;5023576;28;19932;-41
2023/11/21 01:20:46;;;;;;;;;;;;;;;8.53;100.00;101124.41;5034481;28;20380;-40
2023/11/21 01:23:12;;;;;;;;;;;;;;;8.57;100.00;101139.16;5038395;28;19951;-40
2023/11/21 01:25:37;;;;;;;;;;;;;;;8.60;100.00;101129.94;5021284;28;20015;-41
2023/11/21 01:28:02;;;;;;;;;;;;;;;8.62;100.00;101137.84;5026288;28;19913;-40
2023/11/21 01:30:27;;;;;;;;;;;;;;;8.64;100.00;101141.22;5032010;28;19917;-41
2023/11/21 01:32:52;;;;;;;;;;;;;;;8.65;100.00;101135.66;5040790;28;19958;-40
2023/11/21 01:35:18;;;;;;;;;;;;;;;8.69;100.00;101146.91;5027373;28;19979;-40
2023/11/21 01:37:43;;;;;;;;;;;;;;;8.71;100.00;101139.53;5044284;28;19913;-41
2023/11/21 01:40:13;;;;;;;;;;;;;;;8.72;100.00;101149.28;5022393;28;19921;-41
2023/11/21 01:42:38;;;;;;;;;;;;;;;8.71;100.00;101155.66;5020366;28;19918;-40
2023/11/21 01:45:04;;;;;;;;;;;;;;;8.70;100.00;101151.28;5022213;28;20384;-38
2023/11/21 01:47:30;;;;;;;;;;;;;;;8.71;100.00;101158.31;5035469;28;19919;-42
2023/11/21 01:49:56;;;;;;;;;;;;;;;8.72;100.00;101154.66;5032339;28;20011;-39
2023/11/21 01:52:21;;;;;;;;;;;;;;;8.71;100.00;101163.69;5007136;28;19921;-41
2023/11/21 01:54:47;;;;;;;;;;;;;;;8.71;100.00;101163.69;5018174;28;19930;-41
2023/11/21 01:57:12;;;;;;;;;;;;;;;8.74;100.00;101168.72;5010742;28;20032;-40
2023/11/21 01:59:38;;;;;;;;;;;;;;;8.72;100.00;101171.59;5011902;28;19952;-41
2023/11/21 02:02:05;;;;;;;;;;;;;;;8.78;100.00;101175.47;5018690;28;19917;-40
2023/11/21 02:04:31;;;;;;;;;;;;;;;8.79;100.00;101183.38;5014310;28;19918;-40
2023/11/21 02:06:56;;;;;;;;;;;;;;;8.78;100.00;101170.94;5023045;28;19917;-40
2023/11/21 02:09:28;;;;;;;;;;;;;;;8.83;100.00;101175.00;5027319;28;19964;-39
2023/11/21 02:11:54;;;;;;;;;;;;;;;8.86;100.00;101172.81;5030273;28;19953;-40
2023/11/21 02:14:22;;;;;;;;;;;;;;;8.86;100.00;101180.03;5031144;28;19932;-41
2023/11/21 02:16:51;;;;;;;;;;;;;;;8.87;100.00;101177.16;5020893;28;19956;-40
2023/11/21 02:19:25;;;;;;;;;;;;;;;8.86;100.00;101178.19;5029472;28;19988;-40
2023/11/21 02:21:51;;;;;;;;;;;;;;;8.86;100.00;101180.03;5029984;28;19917;-40
2023/11/21 02:24:18;;;;;;;;;;;;;;;8.85;100.00;101181.03;5029030;28;19952;-40
2023/11/21 02:26:43;;;;;;;;;;;;;;;8.88;100.00;101186.09;5035007;28;19917;-40
2023/11/21 02:29:11;;;;;;;;;;;;;;;8.92;100.00;101184.75;5022154;28;19928;-40
2023/11/21 02:31:38;;;;;;;;;;;;;;;8.94;100.00;101188.94;5029139;28;19917;-40
2023/11/21 02:34:03;;;;;;;;;;;;;;;8.93;100.00;101183.75;5025803;28;19917;-41
2023/11/21 02:36:29;;;;;;;;;;;;;;;8.95;100.00;101187.97;5028675;28;19923;-40
2023/11/21 02:38:54;;;;;;;;;;;;;;;8.97;100.00;101180.56;5035125;28;20003;-41
2023/11/21 02:41:20;;;;;;;;;;;;;;;8.99;100.00;101183.94;5028892;28;20360;-41
2023/11/21 02:43:46;;;;;;;;;;;;;;;8.99;100.00;101186.59;5008230;28;19927;-40
2023/11/21 02:46:11;;;;;;;;;;;;;;;9.00;100.00;101185.63;5018447;28;20008;-40
2023/11/21 02:48:36;;;;;;;;;;;;;;;9.00;100.00;101185.63;5034368;28;19917;-41
2023/11/21 02:51:01;;;;;;;;;;;;;;;8.98;100.00;101179.56;5031614;28;19940;-40
2023/11/21 02:53:27;;;;;;;;;;;;;;;8.98;100.00;101184.94;5018775;28;19971;-41
2023/11/21 02:55:52;;;;;;;;;;;;;;;9.00;100.00;101199.06;5034479;28;20342;-40
2023/11/21 02:58:18;;;;;;;;;;;;;;;9.00;100.00;101196.38;5024126;28;19988;-40
2023/11/21 03:00:43;;;;;;;;;;;;;;;9.01;100.00;101203.41;5034556;28;19952;-40
2023/11/21 03:03:08;;;;;;;;;;;;;;;9.01;100.00;101202.56;5034216;28;19951;-41
2023/11/21 03:05:35;;;;;;;;;;;;;;;9.04;100.00;101207.59;5034873;28;19931;-41
2023/11/21 03:08:00;;;;;;;;;;;;;;;9.07;100.00;101206.44;5021027;28;19921;-40
2023/11/21 03:10:25;;;;;;;;;;;;;;;9.08;100.00;101197.38;5015159;28;19913;-40
2023/11/21 03:12:51;;;;;;;;;;;;;;;9.08;100.00;101200.88;5021794;28;20383;-41
2023/11/21 03:15:16;;;;;;;;;;;;;;;9.11;100.00;101207.78;5022606;28;19913;-40
2023/11/21 03:17:42;;;;;;;;;;;;;;;9.11;100.00;101205.09;5031657;28;19935;-41
2023/11/21 03:20:10;;;;;;;;;;;;;;;9.13;100.00;101206.59;5040039;28;20354;-40
2023/11/21 03:22:36;;;;;;;;;;;;;;;9.20;100.00;101214.88;5034215;28;20059;-40
2023/11/21 03:25:01;;;;;;;;;;;;;;;9.17;100.00;101218.72;5033655;28;20035;-40
2023/11/21 03:27:26;;;;;;;;;;;;;;;9.16;100.00;101218.88;5033596;28;19920;-39
2023/11/21 03:29:51;;;;;;;;;;;;;;;9.19;100.00;101216.72;5033014;28;20280;-41
2023/11/21 03:32:17;;;;;;;;;;;;;;;9.20;100.00;101225.59;5033370;28;19940;-40
2023/11/21 03:34:58;;;;;;;;;;;;;;;9.16;100.00;101226.94;5016153;28;19925;-39
2023/11/21 03:37:23;;;;;;;;;;;;;;;9.13;100.00;101228.09;4996685;28;20410;-39
2023/11/21 03:39:48;;;;;;;;;;;;;;;9.14;100.00;101235.16;5014399;28;19960;-40
2023/11/21 03:42:14;;;;;;;;;;;;;;;9.14;100.00;101228.97;5013825;28;20320;-40
2023/11/21 03:44:39;;;;;;;;;;;;;;;9.14;100.00;101243.22;5014785;28;19921;-40
2023/11/21 03:47:05;;;;;;;;;;;;;;;9.16;100.00;101251.09;5015028;28;19944;-40
2023/11/21 03:49:30;;;;;;;;;;;;;;;9.18;100.00;101251.78;4997267;28;19914;-40
2023/11/21 03:51:55;;;;;;;;;;;;;;;9.19;100.00;101242.75;5014469;28;19914;-39
2023/11/21 03:54:21;;;;;;;;;;;;;;;9.19;100.00;101251.63;4996913;28;19963;-40
2023/11/21 03:56:46;;;;;;;;;;;;;;;9.20;100.00;101258.66;5015069;28;19971;-40
2023/11/21 03:59:11;;;;;;;;;;;;;;;9.21;100.00;101263.03;5016132;28;19963;-40
2023/11/21 04:01:36;;;;;;;;;;;;;;;9.25;100.00;101268.09;5014483;28;19981;-40
2023/11/21 04:04:02;;;;;;;;;;;;;;;9.24;100.00;101264.53;5014346;28;19924;-40
2023/11/21 04:06:27;;;;;;;;;;;;;;;9.27;100.00;101266.94;5025353;28;19913;-39
2023/11/21 04:08:52;;;;;;;;;;;;;;;9.28;100.00;101273.13;5035778;28;19921;-39
2023/11/21 04:11:17;;;;;;;;;;;;;;;9.28;100.00;101268.59;5036869;28;19959;-40
2023/11/21 04:13:43;;;;;;;;;;;;;;;9.27;100.00;101272.31;5034379;28;19913;-39
2023/11/21 04:16:08;;;;;;;;;;;;;;;9.28;100.00;101276.66;5025796;28;19967;-40
2023/11/21 04:18:34;;;;;;;;;;;;;;;9.29;100.00;101275.66;5013050;28;19917;-39
2023/11/21 04:21:00;;;;;;;;;;;;;;;9.31;100.00;101279.00;5012734;28;20023;-39
2023/11/21 04:23:25;;;;;;;;;;;;;;;9.32;100.00;101286.09;5013013;28;20483;-39
2023/11/21 04:25:50;;;;;;;;;;;;;;;9.32;100.00;101283.41;5012846;28;20398;-39
2023/11/21 04:28:15;;;;;;;;;;;;;;;9.33;100.00;101295.81;5013684;28;20279;-39
2023/11/21 04:30:41;;;;;;;;;;;;;;;9.36;100.00;101300.84;5013677;28;19913;-38
2023/11/21 04:33:07;;;;;;;;;;;;;;;9.42;100.00;101302.88;5013621;28;20370;-41
2023/11/21 04:35:32;;;;;;;;;;;;;;;9.51;100.00;101300.25;5013500;28;19924;-40
2023/11/21 04:37:58;;;;;;;;;;;;;;;9.53;100.00;101303.59;5013406;28;19913;-41
2023/11/21 04:40:23;;;;;;;;;;;;;;;9.53;100.00;101312.50;5013224;28;19913;-39
2023/11/21 04:42:48;;;;;;;;;;;;;;;9.66;100.00;101325.47;5013246;28;19913;-39
2023/11/21 04:45:13;;;;;;;;;;;;;;;9.63;100.00;101317.72;5012825;28;19913;-44
2023/11/21 04:47:38;;;;;;;;;;;;;;;9.55;100.00;101321.22;5014510;28;19922;-44
2023/11/21 04:50:04;;;;;;;;;;;;;;;9.49;100.00;101304.94;5015727;28;19924;-41
2023/11/21 04:52:29;;;;;;;;;;;;;;;9.40;100.00;101322.84;5029112;28;19983;-43
2023/11/21 04:54:57;;;;;;;;;;;;;;;9.30;100.00;101323.00;5018245;28;20004;-44
2023/11/21 04:57:22;;;;;;;;;;;;;;;9.22;100.00;101334.56;5033461;28;20032;-40
2023/11/21 04:59:48;;;;;;;;;;;;;;;9.13;100.00;101329.28;5017921;28;19948;-41
2023/11/21 05:02:13;;;;;;;;;;;;;;;9.05;100.00;101331.94;5009730;28;19928;-41
2023/11/21 05:04:39;;;;;;;;;;;;;;;8.94;100.00;101335.75;5014315;28;19981;-39
2023/11/21 05:07:04;;;;;;;;;;;;;;;8.87;100.00;101340.91;5022863;28;19947;-40
2023/11/21 05:09:32;;;;;;;;;;;;;;;8.79;100.00;101343.53;5027379;28;19925;-41
2023/11/21 05:11:57;;;;;;;;;;;;;;;8.77;100.00;101345.56;5030619;28;19913;-40
2023/11/21 05:14:22;;;;;;;;;;;;;;;8.72;100.00;101343.34;5015918;28;20329;-40
2023/11/21 05:16:47;;;;;;;;;;;;;;;8.73;100.00;101349.53;5029848;28;19951;-40
2023/11/21 05:19:13;;;;;;;;;;;;;;;8.76;100.00;101362.63;5030252;28;19921;-40
2023/11/21 05:21:38;;;;;;;;;;;;;;;8.76;100.00;101359.97;5035277;28;19917;-40
2023/11/21 05:24:05;;;;;;;;;;;;;;;8.77;100.00;101361.66;5033562;28;19924;-41
2023/11/21 05:26:30;;;;;;;;;;;;;;;8.83;100.00;101370.91;5024737;28;20009;-40
2023/11/21 05:28:55;;;;;;;;;;;;;;;8.88;100.00;101377.50;5036205;28;20010;-41
2023/11/21 05:31:21;;;;;;;;;;;;;;;8.94;100.00;101379.53;5019784;28;19920;-40
2023/11/21 05:33:46;;;;;;;;;;;;;;;9.01;100.00;101385.97;5016331;28;19917;-40
2023/11/21 05:36:12;;;;;;;;;;;;;;;9.08;100.00;101385.31;5015901;28;20339;-40
2023/11/21 05:38:37;;;;;;;;;;;;;;;9.14;100.00;101396.28;5015918;28;19913;-41
2023/11/21 05:41:04;;;;;;;;;;;;;;;9.19;100.00;101391.28;5006199;28;19918;-41
2023/11/21 05:43:30;;;;;;;;;;;;;;;9.25;100.00;101400.53;4994686;28;19997;-41
2023/11/21 05:45:55;;;;;;;;;;;;;;;9.30;100.00;101397.38;4994531;28;20401;-40
2023/11/21 05:48:21;;;;;;;;;;;;;;;9.34;100.00;101402.25;5004309;28;19992;-41
2023/11/21 05:50:46;;;;;;;;;;;;;;;9.40;100.00;101411.50;5015306;28;20138;-40
2023/11/21 05:53:12;;;;;;;;;;;;;;;9.43;100.00;101414.75;5013638;28;19961;-42
2023/11/21 05:55:39;;;;;;;;;;;;;;;9.48;100.00;101416.94;5013455;28;19984;-41
2023/11/21 05:58:04;;;;;;;;;;;;;;;9.48;100.00;101416.94;5026773;28;19924;-40
2023/11/21 06:00:29;;;;;;;;;;;;;;;9.52;100.00;101420.97;5037109;28;19916;-40
2023/11/21 06:02:55;;;;;;;;;;;;;;;9.54;100.00;101431.59;5038232;28;19924;-40
2023/11/21 06:05:23;;;;;;;;;;;;;;;9.56;100.00;101426.91;5037642;28;19913;-41
2023/11/21 06:07:48;;;;;;;;;;;;;;;9.52;100.00;101436.28;5037715;28;19936;-40
2023/11/21 06:10:14;;;;;;;;;;;;;;;9.47;100.00;101435.91;5030172;28;19913;-42
2023/11/21 06:12:40;;;;;;;;;;;;;;;9.43;100.00;101443.47;5036984;28;19956;-41
2023/11/21 06:15:07;;;;;;;;;;;;;;;9.40;100.00;101423.13;5034309;28;19913;-41
2023/11/21 06:17:32;;;;;;;;;;;;;;;9.35;100.00;101438.88;5035381;28;19963;-40
2023/11/21 06:19:57;;;;;;;;;;;;;;;9.34;100.00;101447.91;5025436;28;19912;-41
2023/11/21 06:22:23;;;;;;;;;;;;;;;9.27;100.00;101457.63;5032783;28;19999;-41
2023/11/21 06:24:48;;;;;;;;;;;;;;;9.23;100.00;101456.25;5026221;28;19917;-41
2023/11/21 06:27:13;;;;;;;;;;;;;;;9.20;100.00;101459.25;5017264;28;19931;-41
2023/11/21 06:29:38;;;;;;;;;;;;;;;9.17;100.00;101459.56;5017862;28;20016;-41
2023/11/21 06:32:05;;;;;;;;;;;;;;;9.21;100.00;101460.94;5038889;28;19952;-40
2023/11/21 06:34:30;;;;;;;;;;;;;;;9.21;100.00;101464.44;5030293;28;19959;-41
2023/11/21 06:36:56;;;;;;;;;;;;;;;9.20;100.00;101468.16;5009470;28;20435;-41
2023/11/21 06:39:22;;;;;;;;;;;;;;;9.19;100.00;101468.31;4994946;28;19971;-41
2023/11/21 06:41:48;;;;;;;;;;;;;;;9.15;100.00;101475.00;5010165;28;20017;-39
2023/11/21 06:44:13;;;;;;;;;;;;;;;9.17;100.00;101475.69;5011346;28;20004;-42
2023/11/21 06:46:42;;;;;;;;;;;;;;;9.19;100.00;101479.06;5010082;28;19921;-41
2023/11/21 06:49:07;;;;;;;;;;;;;;;9.15;100.00;101481.22;5012044;28;19932;-40
2023/11/21 06:51:32;;;;;;;;;;;;;;;9.10;100.00;101494.25;5009937;28;20484;-42
2023/11/21 06:53:57;;;;;;;;;;;;;;;9.11;100.00;101495.09;5011777;28;20000;-41
2023/11/21 06:56:22;;;;;;;;;;;;;;;9.11;100.00;101495.97;5009361;28;20416;-41
2023/11/21 06:58:49;;;;;;;;;;;;;;;9.10;100.00;101507.69;5001984;28;19925;-41
2023/11/21 07:01:14;;;;;;;;;;;;;;;9.08;100.00;101508.84;4996877;28;19928;-41
2023/11/21 07:03:41;;;;;;;;;;;;;;;9.10;100.00;101512.22;5000506;28;20106;-40
2023/11/21 07:06:07;;;;;;;;;;;;;;;9.13;100.00;101512.75;5009088;28;19975;-41
2023/11/21 07:08:32;;;;;;;;;;;;;;;9.19;100.00;101516.66;5010254;28;20011;-41
2023/11/21 07:10:57;;;;;;;;;;;;;;;9.22;100.00;101525.25;4990986;28;19909;-41
2023/11/21 07:13:23;;;;;;;;;;;;;;;9.26;100.00;101527.63;5010092;28;19960;-41
2023/11/21 07:15:48;;;;;;;;;;;;;;;9.30;100.00;101532.53;4991662;28;20322;-42
2023/11/21 07:18:14;;;;;;;;;;;;;;;9.41;100.00;101534.94;5011446;28;20356;-41
2023/11/21 07:20:39;;;;;;;;;;;;;;;9.45;100.00;101543.53;5009396;28;19961;-41
2023/11/21 07:23:05;;;;;;;;;;;;;;;9.50;100.00;101545.75;5010089;28;21189;-41
2023/11/21 07:25:31;;;;;;;;;;;;;;;9.57;100.00;101555.72;5009224;28;19921;-42
2023/11/21 07:27:56;;;;;;;;;;;;;;;9.63;100.00;101556.91;5010284;28;19921;-40
2023/11/21 07:30:22;;;;;;;;;;;;;;;9.64;100.00;101572.91;5009041;28;19923;-42
2023/11/21 07:32:48;;;;;;;;;;;;;;;9.64;100.00;101569.38;5008842;28;19917;-41
2023/11/21 07:35:13;;;;;;;;;;;;;;;9.64;100.00;101564.84;5009173;28;20008;-41
2023/11/21 07:37:38;;;;;;;;;;;;;;;9.70;100.00;101562.53;5005923;28;19949;-42
2023/11/21 07:40:04;;;;;;;;;;;;;;;9.69;100.00;101572.44;5007703;28;20315;-41
2023/11/21 07:42:29;;;;;;;;;;;;;;;9.66;100.00;101567.34;5007292;28;20265;-44
2023/11/21 07:44:55;;;;;;;;;;;;;;;9.75;100.00;101571.78;4990453;28;19967;-41
2023/11/21 07:47:20;;;;;;;;;;;;;;;9.72;100.00;101574.81;5009686;28;19921;-41
2023/11/21 07:49:46;;;;;;;;;;;;;;;9.72;100.00;101577.50;4992399;28;19917;-40
2023/11/21 07:52:11;;;;;;;;;;;;;;;9.79;100.00;101586.59;4994566;28;19925;-41
2023/11/21 07:54:38;;;;;;;;;;;;;;;9.92;100.00;101593.38;5009773;28;20027;-42
2023/11/21 07:57:04;;;;;;;;;;;;;;;9.95;100.00;101593.06;5009023;28;19932;-41
2023/11/21 07:59:29;;;;;;;;;;;;;;;9.98;100.00;101595.44;5012313;28;19924;-41
2023/11/21 08:01:54;;;;;;;;;;;;;;;10.00;100.00;101601.50;5013660;28;20264;-42
2023/11/21 08:04:20;;;;;;;;;;;;;;;10.03;100.00;101602.03;5012319;28;19971;-41
2023/11/21 08:06:45;;;;;;;;;;;;;;;10.08;100.00;101604.22;5009804;28;19921;-41
2023/11/21 08:09:12;;;;;;;;;;;;;;;10.18;100.00;101606.81;5010217;28;19975;-40
2023/11/21 08:11:38;;;;;;;;;;;;;;;10.30;100.00;101609.09;4989530;28;19921;-40
2023/11/21 08:14:04;;;;;;;;;;;;;;;10.46;100.00;101610.16;4991782;28;20294;-40
2023/11/21 08:16:30;;;;;;;;;;;;;;;10.58;100.00;101613.38;5008902;28;19979;-41
2023/11/21 08:18:55;;;;;;;;;;;;;;;10.81;100.00;101619.03;5009980;28;19943;-41
2023/11/21 08:21:20;;;;;;;;;;;;;;;10.95;100.00;101618.38;5008819;28;19936;-41
2023/11/21 08:23:45;;;;;;;;;;;;;;;11.21;100.00;101619.06;5009711;28;19921;-40
2023/11/21 08:26:11;;;;;;;;;;;;;;;11.62;100.00;101610.16;5005392;28;19932;-40
2023/11/21 08:28:36;;;;;;;;;;;;;;;12.36;100.00;101602.75;5012801;28;19925;-40
2023/11/21 08:31:01;;;;;;;;;;;;;;;13.16;100.00;101594.38;5017993;28;19925;-40
2023/11/21 08:33:26;;;;;;;;;;;;;;;14.13;100.00;101566.56;5017228;28;19923;-40
2023/11/21 08:35:52;;;;;;;;;;;;;;;14.93;100.00;101535.84;5005684;28;19917;-40
2023/11/21 08:38:17;;;;;;;;;;;;;;;15.06;100.00;101526.16;5018915;28;20366;-39
2023/11/21 08:40:43;;;;;;;;;;;;;;;14.90;100.00;101521.81;5014590;28;20009;-40
2023/11/21 08:43:08;;;;;;;;;;;;;;;14.42;100.00;101525.03;5018181;28;19922;-39
2023/11/21 08:45:34;;;;;;;;;;;;;;;13.92;100.00;101534.00;5009544;28;20008;-40
2023/11/21 08:48:00;;;;;;;;;;;;;;;13.30;100.00;101527.88;5019309;28;19981;-40
2023/11/21 08:50:25;;;;;;;;;;;;;;;12.86;100.00;101533.09;5025117;28;19968;-39
2023/11/21 08:52:51;;;;;;;;;;;;;;;12.41;100.00;101543.69;5016925;28;19922;-41
2023/11/21 08:55:16;;;;;;;;;;;;;;;12.13;100.00;101558.66;5023832;28;19932;-41
2023/11/21 08:57:43;;;;;;;;;;;;;;;11.89;100.00;101559.56;5022904;28;19920;-40
2023/11/21 09:00:12;;;;;;;;;;;;;;;11.69;100.00;101572.56;5018419;28;20008;-41
2023/11/21 09:02:41;;;;;;;;;;;;;;;11.59;100.00;101570.06;5015429;28;19964;-40
2023/11/21 09:05:07;;;;;;;;;;;;;;;11.45;100.00;101573.44;5011120;28;20335;-39
2023/11/21 09:07:32;;;;;;;;;;;;;;;11.40;100.00;101587.41;5000123;28;19921;-40
2023/11/21 09:09:57;;;;;;;;;;;;;;;11.33;100.00;101595.34;5026657;28;19952;-41
2023/11/21 09:12:24;;;;;;;;;;;;;;;11.25;100.00;101595.34;5016263;28;19935;-41
2023/11/21 09:14:50;;;;;;;;;;;;;;;11.24;100.00;101599.03;5019690;28;19917;-40
2023/11/21 09:17:15;;;;;;;;;;;;;;;11.22;100.00;101611.84;5018228;28;19913;-41
2023/11/21 09:19:41;;;;;;;;;;;;;;;11.23;100.00;101615.38;5015950;28;19980;-41
2023/11/21 09:22:06;;;;;;;;;;;;;;;11.21;100.00;101613.69;5017541;28;20000;-40
2023/11/21 09:24:32;;;;;;;;;;;;;;;11.28;100.00;101623.81;5029861;28;19925;-40
2023/11/21 09:26:57;;;;;;;;;;;;;;;11.34;100.00;101626.66;5029969;28;19913;-41
2023/11/21 09:29:22;;;;;;;;;;;;;;;11.38;100.00;101641.50;5030546;28;19964;-41
2023/11/21 09:31:48;;;;;;;;;;;;;;;11.41;100.00;101651.09;5025939;28;19913;-41
2023/11/21 09:34:14;;;;;;;;;;;;;;;11.39;100.00;101653.13;5029673;28;20374;-42
2023/11/21 09:36:39;;;;;;;;;;;;;;;11.37;100.00;101660.53;5023520;28;19920;-41
2023/11/21 09:39:08;;;;;;;;;;;;;;;11.31;100.00;101671.97;5031136;28;20055;-42
2023/11/21 09:41:36;;;;;;;;;;;;;;;11.27;100.00;101682.25;5031573;28;19928;-41
2023/11/21 09:44:01;;;;;;;;;;;;;;;11.23;100.00;101680.06;5030258;28;19979;-40
2023/11/21 09:46:26;;;;;;;;;;;;;;;11.20;100.00;101698.22;5020159;28;19966;-41
2023/11/21 09:48:53;;;;;;;;;;;;;;;11.17;100.00;101695.88;5023397;28;19913;-40
2023/11/21 09:51:19;;;;;;;;;;;;;;;11.13;100.00;101701.75;5022221;28;19913;-39
2023/11/21 09:53:45;;;;;;;;;;;;;;;11.12;100.00;101708.16;5026280;28;19920;-41
2023/11/21 09:56:10;;;;;;;;;;;;;;;11.06;100.00;101715.06;5035086;28;19921;-40
2023/11/21 09:58:35;;;;;;;;;;;;;;;11.01;100.00;101714.69;5036605;28;20564;-41
2023/11/21 10:01:02;;;;;;;;;;;;;;;11.00;100.00;101723.75;5033482;28;19951;-40
2023/11/21 10:03:28;;;;;;;;;;;;;;;10.97;100.00;101727.63;5025754;28;20422;-40
2023/11/21 10:05:53;;;;;;;;;;;;;;;10.94;100.00;101733.34;5030882;28;19941;-40
2023/11/21 10:08:19;;;;;;;;;;;;;;;10.96;100.00;101730.50;5030304;28;19920;-42
2023/11/21 10:10:46;;;;;;;;;;;;;;;10.95;100.00;101743.13;5030368;28;19920;-41
2023/11/21 10:13:12;;;;;;;;;;;;;;;10.86;100.00;101733.31;5027409;28;19921;-41
2023/11/21 10:15:37;;;;;;;;;;;;;;;10.83;100.00;101755.19;5028586;28;19925;-41
2023/11/21 10:18:03;;;;;;;;;;;;;;;10.81;100.00;101759.03;4997615;28;19921;-41
2023/11/21 10:20:29;;;;;;;;;;;;;;;10.77;100.00;101767.44;5030356;28;19971;-40
2023/11/21 10:22:54;;;;;;;;;;;;;;;10.76;100.00;101770.28;5029382;28;19929;-41
2023/11/21 10:25:20;;;;;;;;;;;;;;;10.65;100.00;101767.88;5029962;28;19921;-41
2023/11/21 10:27:47;;;;;;;;;;;;;;;10.69;100.00;101775.50;5031041;28;20358;-42
2023/11/21 10:30:12;;;;;;;;;;;;;;;10.75;100.00;101780.22;5027276;28;19920;-40
2023/11/21 10:32:41;;;;;;;;;;;;;;;10.72;100.00;101775.16;5029905;28;19924;-41
2023/11/21 10:35:12;;;;;;;;;;;;;;;10.76;100.00;101789.97;5029112;28;19928;-41
2023/11/21 10:37:40;;;;;;;;;;;;;;;10.79;100.00;101786.13;5029562;28;19936;-41
2023/11/21 10:40:11;;;;;;;;;;;;;;;10.77;100.00;101790.84;5025563;28;19921;-41
2023/11/21 10:42:37;;;;;;;;;;;;;;;10.81;100.00;101788.66;5028246;28;20022;-41
2023/11/21 10:45:04;;;;;;;;;;;;;;;10.83;100.00;101798.28;5025579;28;20407;-40
2023/11/21 10:47:29;;;;;;;;;;;;;;;10.87;100.00;101796.09;5028152;28;19920;-41
2023/11/21 10:49:54;;;;;;;;;;;;;;;10.94;100.00;101794.47;5028031;28;19917;-40
2023/11/21 10:52:20;;;;;;;;;;;;;;;11.05;100.00;101796.84;5027538;28;19917;-41
2023/11/21 10:54:45;;;;;;;;;;;;;;;11.10;100.00;101793.69;5028757;28;19913;-41
2023/11/21 10:57:10;;;;;;;;;;;;;;;11.25;100.00;101796.63;5028842;28;19921;-40
2023/11/21 10:59:36;;;;;;;;;;;;;;;11.30;100.00;101783.50;5023050;28;19932;-41
2023/11/21 11:02:03;;;;;;;;;;;;;;;11.35;100.00;101787.38;5028293;28;19964;-40
2023/11/21 11:04:28;;;;;;;;;;;;;;;11.46;100.00;101788.94;5025657;28;20299;-41
2023/11/21 11:06:57;;;;;;;;;;;;;;;11.46;100.00;101788.94;5028203;28;19913;-40
2023/11/21 11:09:22;;;;;;;;;;;;;;;11.49;100.00;101790.44;5025271;28;20376;-40
2023/11/21 11:11:48;;;;;;;;;;;;;;;11.43;100.00;101784.72;5028637;28;19913;-41
2023/11/21 11:14:14;;;;;;;;;;;;;;;11.42;100.00;101787.56;5028388;28;20417;-41
2023/11/21 11:16:49;;;;;;;;;;;;;;;11.39;100.00;101788.72;5026764;28;20107;-40
2023/11/21 11:19:14;;;;;;;;;;;;;;;11.29;100.00;101787.19;5025232;28;19920;-40
2023/11/21 11:21:46;;;;;;;;;;;;;;;11.30;100.00;101788.88;5027193;28;19921;-40
2023/11/21 11:24:26;;;;;;;;;;;;;;;11.30;100.00;101786.19;5026676;28;20269;-41
2023/11/21 11:26:56;;;;;;;;;;;;;;;11.28;100.00;101802.50;5017977;28;19917;-41
2023/11/21 11:29:31;;;;;;;;;;;;;;;11.25;100.00;101807.38;5026880;28;19913;-41
2023/11/21 11:31:56;;;;;;;;;;;;;;;11.23;100.00;101802.16;5027363;28;19913;-41
2023/11/21 11:34:33;;;;;;;;;;;;;;;11.28;100.00;101801.66;5029173;28;19913;-39
2023/11/21 11:36:58;;;;;;;;;;;;;;;11.33;100.00;101807.41;5024652;28;19909;-41
2023/11/21 11:39:30;;;;;;;;;;;;;;;11.41;100.00;101800.19;5031596;28;19920;-41
2023/11/21 11:41:55;;;;;;;;;;;;;;;11.52;100.00;101806.28;5032250;28;20004;-40
2023/11/21 11:44:39;;;;;;;;;;;;;;;11.55;100.00;101797.88;5033390;28;19956;-41
2023/11/21 11:47:09;;;;;;;;;;;;;;;11.61;100.00;101802.59;5024830;28;19921;-40
2023/11/21 11:49:36;;;;;;;;;;;;;;;11.61;100.00;101808.84;5014019;28;19924;-40
2023/11/21 11:52:20;;;;;;;;;;;;;;;11.64;100.00;101807.69;5022222;28;19921;-41
2023/11/21 11:54:45;;;;;;;;;;;;;;;11.54;100.00;101807.81;5026663;28;19913;-41
2023/11/21 11:57:10;;;;;;;;;;;;;;;11.50;100.00;101811.84;5027050;28;20512;-41
2023/11/21 11:59:55;;;;;;;;;;;;;;;11.51;100.00;101816.25;5010524;28;19928;-42
2023/11/21 12:02:23;;;;;;;;;;;;;;;11.52;100.00;101812.53;5026754;28;19919;-41
2023/11/21 12:04:48;;;;;;;;;;;;;;;11.58;100.00;101830.72;5027542;28;19920;-42
2023/11/21 12:07:13;;;;;;;;;;;;;;;11.68;100.00;101819.81;5026423;28;19917;-40
2023/11/21 12:09:38;;;;;;;;;;;;;;;11.83;100.00;101826.25;5027772;28;19920;-40
2023/11/21 12:12:04;;;;;;;;;;;;;;;11.88;100.00;101831.19;5016644;28;20295;-40
2023/11/21 12:14:30;;;;;;;;;;;;;;;11.99;100.00;101819.22;5017200;28;20028;-40
2023/11/21 12:16:55;;;;;;;;;;;;;;;12.14;100.00;101819.38;5024997;28;19936;-41
2023/11/21 12:19:21;;;;;;;;;;;;;;;12.29;100.00;101823.94;5025996;28;20330;-39
2023/11/21 12:21:48;;;;;;;;;;;;;;;12.55;100.00;101830.16;5026933;28;19913;-42
2023/11/21 12:24:13;;;;;;;;;;;;;;;12.72;100.00;101818.34;5017436;28;20331;-42
2023/11/21 12:26:39;;;;;;;;;;;;;;;12.92;100.00;101814.22;5027272;28;20019;-40